San Gennaro — IIOT2 — position and weather

sailwx.info

Track history (hours):
 
Tides and Currents Weather Stations Pressure Air Temp Water Temp Dewpoint Dewpoint Depression Visibility Wind Speed Wind Dir Waves Ship Positions

San Gennaro

Last reported at 2015-Jan-27 04:21 UTC. Time now 2015-Jan-27 05:46 UTC.
Position N 40°51' E 014°16'.

Length 27 m; draft 5.2 m.

Type: Tug. MMSI: 247295700.

Date/timePositionNaut miles runAvg speedWind from/ knotsBaromVisibWave heightAir tempDewpointWater temp
2015-Jan-27 04:21N 40°51' E 014°16'0 0.0
2015-Jan-27 03:09N 40°51' E 014°16'0 0.0
2015-Jan-27 02:15N 40°51' E 014°16'0 0.0
2015-Jan-27 01:21N 40°51' E 014°16'0 0.0
2015-Jan-26 23:21N 40°51' E 014°16'0 0.0
2015-Jan-26 22:27N 40°51' E 014°16'0 0.0
2015-Jan-26 16:27N 40°51' E 014°16'0 0.0
2015-Jan-26 15:15N 40°51' E 014°16'1 0.3
2015-Jan-26 13:24N 40°50' E 014°17'0 0.1
2015-Jan-26 12:23N 40°50' E 014°16'0 0.2
2015-Jan-26 11:32N 40°50' E 014°17'2 1.5
2015-Jan-26 10:34N 40°49' E 014°18'1 0.2
2015-Jan-26 05:32N 40°50' E 014°17'1 0.2
2015-Jan-25 23:22N 40°51' E 014°16'0 0.0
2015-Jan-25 10:28N 40°51' E 014°16'0 0.2
2015-Jan-25 08:18N 40°50' E 014°16'0 0.1
2015-Jan-25 04:11N 40°51' E 014°16'0 0.0
2015-Jan-25 02:05N 40°51' E 014°16'0 0.0
2015-Jan-24 23:23N 40°51' E 014°16'1 0.9
2015-Jan-24 22:33N 40°50' E 014°17'0 0.0
2015-Jan-24 18:30N 40°50' E 014°17'0 0.1
2015-Jan-24 14:33N 40°50' E 014°17'1110.8
2015-Jan-24 13:33N 40°43' E 014°27'1 1.2
2015-Jan-24 12:25N 40°42' E 014°28'0 0.0
2015-Jan-24 11:28N 40°42' E 014°28'0 0.0
2015-Jan-24 10:31N 40°42' E 014°28'0 0.0
2015-Jan-24 09:31N 40°42' E 014°28'0 0.2
2015-Jan-24 08:33N 40°42' E 014°28'1110.3
2015-Jan-24 07:31N 40°49' E 014°18'2 2.1
2015-Jan-24 06:32N 40°51' E 014°16'0 0.0
2015-Jan-24 05:05N 40°51' E 014°16'0 0.0
2015-Jan-23 23:31N 40°51' E 014°16'0 0.0
2015-Jan-23 22:08N 40°51' E 014°16'0 0.0
2015-Jan-23 21:13N 40°51' E 014°16'1 0.9
2015-Jan-23 20:33N 40°50' E 014°16'1 0.3
2015-Jan-23 18:26N 40°51' E 014°16'1 0.7
2015-Jan-23 16:33N 40°50' E 014°17'9 8.7
2015-Jan-23 15:29N 40°43' E 014°26'2 2.3
2015-Jan-23 14:28N 40°42' E 014°28'0 0.2
2015-Jan-23 13:22N 40°42' E 014°28'0 0.4
2015-Jan-23 12:29N 40°42' E 014°28'10 9.7
2015-Jan-23 11:28N 40°48' E 014°19'3 0.5
2015-Jan-23 04:32N 40°51' E 014°16'0 0.1
2015-Jan-22 22:15N 40°50' E 014°16'2 2.2
2015-Jan-22 21:33N 40°50' E 014°18'2 0.9
2015-Jan-22 19:14N 40°51' E 014°16'0 0.0
2015-Jan-22 18:14N 40°51' E 014°16'0 0.0
2015-Jan-22 17:08N 40°51' E 014°16'0 0.0
2015-Jan-22 09:22N 40°50' E 014°16'0 0.4
2015-Jan-22 08:27N 40°50' E 014°16'1 0.1
2015-Jan-21 20:31N 40°51' E 014°16'1 1.5
2015-Jan-21 19:33N 40°49' E 014°17'1 0.2
2015-Jan-21 14:28N 40°50' E 014°16'0 0.0
2015-Jan-21 10:23N 40°50' E 014°16'2 2.2
2015-Jan-21 09:30N 40°48' E 014°17'2 1.7
2015-Jan-21 08:04N 40°50' E 014°16'1 0.2
2015-Jan-21 03:31N 40°50' E 014°17'0 0.2
2015-Jan-21 02:34N 40°50' E 014°17'1 0.5
2015-Jan-21 00:08N 40°51' E 014°16'0 0.0
2015-Jan-20 23:26N 40°51' E 014°16'0 0.0
2015-Jan-20 22:14N 40°51' E 014°16'0 0.0
2015-Jan-20 19:23N 40°51' E 014°16'1 0.7
2015-Jan-20 17:32N 40°50' E 014°18'1 0.2
2015-Jan-20 11:06N 40°50' E 014°16'1 1.4
2015-Jan-20 10:33N 40°50' E 014°17'1 0.2
2015-Jan-20 07:21N 40°50' E 014°16'0 0.1
2015-Jan-20 06:33N 40°50' E 014°16'0 0.2
2015-Jan-20 05:26N 40°50' E 014°16'1 1.5
2015-Jan-20 04:31N 40°50' E 014°18'1 0.2
2015-Jan-19 23:11N 40°50' E 014°17'0 0.6
2015-Jan-19 22:31N 40°50' E 014°17'1 0.1
2015-Jan-19 14:09N 40°51' E 014°16'0 0.0
2015-Jan-19 11:09N 40°51' E 014°16'1 0.3
2015-Jan-19 07:33N 40°50' E 014°17'1 0.1
2015-Jan-18 23:09N 40°51' E 014°16'1 1.3
2015-Jan-18 22:23N 40°50' E 014°17'1 0.5
2015-Jan-18 20:24N 40°51' E 014°16'0 0.0
2015-Jan-18 16:18N 40°51' E 014°16'2 2.2
2015-Jan-18 15:33N 40°50' E 014°18'1 0.2
2015-Jan-18 09:33N 40°50' E 014°17'1 0.9
2015-Jan-18 08:33N 40°49' E 014°17'1 1.3
2015-Jan-18 07:29N 40°51' E 014°16'0 0.0
2015-Jan-18 05:05N 40°51' E 014°16'1 2.5
2015-Jan-18 04:33N 40°50' E 014°17'1 0.3
2015-Jan-17 23:23N 40°51' E 014°16'2 2.5
2015-Jan-17 22:32N 40°49' E 014°18'2 0.1
2015-Jan-17 11:33N 40°48' E 014°20'6 6.3
2015-Jan-17 10:32N 40°45' E 014°27'8 8.3
2015-Jan-17 09:33N 40°50' E 014°18'1 0.9
2015-Jan-17 08:20N 40°50' E 014°17'0 0.3
2015-Jan-17 07:33N 40°50' E 014°17'  
Track history (hours):
 
Tides and Currents Weather Stations Pressure Air Temp Water Temp Dewpoint Dewpoint Depression Visibility Wind Speed Wind Dir Waves Ship Positions

San Gennaro

Last reported at 2015-Jan-27 04:21 UTC. Time now 2015-Jan-27 05:46 UTC.
Position N 40°51' E 014°16'.

Length 27 m; draft 5.2 m.

Type: Tug. MMSI: 247295700.

Date/timePositionNaut miles runAvg speedWind from/ knotsBaromVisibWave heightAir tempDewpointWater temp
2015-Jan-27 04:21N 40°51' E 014°16'0 0.0
2015-Jan-27 03:09N 40°51' E 014°16'0 0.0
2015-Jan-27 02:15N 40°51' E 014°16'0 0.0
2015-Jan-27 01:21N 40°51' E 014°16'0 0.0
2015-Jan-26 23:21N 40°51' E 014°16'0 0.0
2015-Jan-26 22:27N 40°51' E 014°16'0 0.0
2015-Jan-26 16:27N 40°51' E 014°16'0 0.0
2015-Jan-26 15:15N 40°51' E 014°16'1 0.3
2015-Jan-26 13:24N 40°50' E 014°17'0 0.1
2015-Jan-26 12:23N 40°50' E 014°16'0 0.2
2015-Jan-26 11:32N 40°50' E 014°17'2 1.5
2015-Jan-26 10:34N 40°49' E 014°18'1 0.2
2015-Jan-26 05:32N 40°50' E 014°17'1 0.2
2015-Jan-25 23:22N 40°51' E 014°16'0 0.0
2015-Jan-25 10:28N 40°51' E 014°16'0 0.2
2015-Jan-25 08:18N 40°50' E 014°16'0 0.1
2015-Jan-25 04:11N 40°51' E 014°16'0 0.0
2015-Jan-25 02:05N 40°51' E 014°16'0 0.0
2015-Jan-24 23:23N 40°51' E 014°16'1 0.9
2015-Jan-24 22:33N 40°50' E 014°17'0 0.0
2015-Jan-24 18:30N 40°50' E 014°17'0 0.1
2015-Jan-24 14:33N 40°50' E 014°17'1110.8
2015-Jan-24 13:33N 40°43' E 014°27'1 1.2
2015-Jan-24 12:25N 40°42' E 014°28'0 0.0
2015-Jan-24 11:28N 40°42' E 014°28'0 0.0
2015-Jan-24 10:31N 40°42' E 014°28'0 0.0
2015-Jan-24 09:31N 40°42' E 014°28'0 0.2
2015-Jan-24 08:33N 40°42' E 014°28'1110.3
2015-Jan-24 07:31N 40°49' E 014°18'2 2.1
2015-Jan-24 06:32N 40°51' E 014°16'0 0.0
2015-Jan-24 05:05N 40°51' E 014°16'0 0.0
2015-Jan-23 23:31N 40°51' E 014°16'0 0.0
2015-Jan-23 22:08N 40°51' E 014°16'0 0.0
2015-Jan-23 21:13N 40°51' E 014°16'1 0.9
2015-Jan-23 20:33N 40°50' E 014°16'1 0.3
2015-Jan-23 18:26N 40°51' E 014°16'1 0.7
2015-Jan-23 16:33N 40°50' E 014°17'9 8.7
2015-Jan-23 15:29N 40°43' E 014°26'2 2.3
2015-Jan-23 14:28N 40°42' E 014°28'0 0.2
2015-Jan-23 13:22N 40°42' E 014°28'0 0.4
2015-Jan-23 12:29N 40°42' E 014°28'10 9.7
2015-Jan-23 11:28N 40°48' E 014°19'3 0.5
2015-Jan-23 04:32N 40°51' E 014°16'0 0.1
2015-Jan-22 22:15N 40°50' E 014°16'2 2.2
2015-Jan-22 21:33N 40°50' E 014°18'2 0.9
2015-Jan-22 19:14N 40°51' E 014°16'0 0.0
2015-Jan-22 18:14N 40°51' E 014°16'0 0.0
2015-Jan-22 17:08N 40°51' E 014°16'0 0.0
2015-Jan-22 09:22N 40°50' E 014°16'0 0.4
2015-Jan-22 08:27N 40°50' E 014°16'1 0.1
2015-Jan-21 20:31N 40°51' E 014°16'1 1.5
2015-Jan-21 19:33N 40°49' E 014°17'1 0.2
2015-Jan-21 14:28N 40°50' E 014°16'0 0.0
2015-Jan-21 10:23N 40°50' E 014°16'2 2.2
2015-Jan-21 09:30N 40°48' E 014°17'2 1.7
2015-Jan-21 08:04N 40°50' E 014°16'1 0.2
2015-Jan-21 03:31N 40°50' E 014°17'0 0.2
2015-Jan-21 02:34N 40°50' E 014°17'1 0.5
2015-Jan-21 00:08N 40°51' E 014°16'0 0.0
2015-Jan-20 23:26N 40°51' E 014°16'0 0.0
2015-Jan-20 22:14N 40°51' E 014°16'0 0.0
2015-Jan-20 19:23N 40°51' E 014°16'1 0.7
2015-Jan-20 17:32N 40°50' E 014°18'1 0.2
2015-Jan-20 11:06N 40°50' E 014°16'1 1.4
2015-Jan-20 10:33N 40°50' E 014°17'1 0.2
2015-Jan-20 07:21N 40°50' E 014°16'0 0.1
2015-Jan-20 06:33N 40°50' E 014°16'0 0.2
2015-Jan-20 05:26N 40°50' E 014°16'1 1.5
2015-Jan-20 04:31N 40°50' E 014°18'1 0.2
2015-Jan-19 23:11N 40°50' E 014°17'0 0.6
2015-Jan-19 22:31N 40°50' E 014°17'1 0.1
2015-Jan-19 14:09N 40°51' E 014°16'0 0.0
2015-Jan-19 11:09N 40°51' E 014°16'1 0.3
2015-Jan-19 07:33N 40°50' E 014°17'1 0.1
2015-Jan-18 23:09N 40°51' E 014°16'1 1.3
2015-Jan-18 22:23N 40°50' E 014°17'1 0.5
2015-Jan-18 20:24N 40°51' E 014°16'0 0.0
2015-Jan-18 16:18N 40°51' E 014°16'2 2.2
2015-Jan-18 15:33N 40°50' E 014°18'1 0.2
2015-Jan-18 09:33N 40°50' E 014°17'1 0.9
2015-Jan-18 08:33N 40°49' E 014°17'1 1.3
2015-Jan-18 07:29N 40°51' E 014°16'0 0.0
2015-Jan-18 05:05N 40°51' E 014°16'1 2.5
2015-Jan-18 04:33N 40°50' E 014°17'1 0.3
2015-Jan-17 23:23N 40°51' E 014°16'2 2.5
2015-Jan-17 22:32N 40°49' E 014°18'2 0.1
2015-Jan-17 11:33N 40°48' E 014°20'6 6.3
2015-Jan-17 10:32N 40°45' E 014°27'8 8.3
2015-Jan-17 09:33N 40°50' E 014°18'1 0.9
2015-Jan-17 08:20N 40°50' E 014°17'0 0.3
2015-Jan-17 07:33N 40°50' E 014°17'  

Dump ship's entire track history